createdAt,value
2016-05-21T00:00:06.573Z,92.59
2016-05-21T00:01:06.576Z,91.83
2016-05-21T00:02:06.594Z,92.79
2016-05-21T00:03:06.628Z,92.5
2016-05-21T00:04:06.647Z,92.64
2016-05-21T00:05:06.649Z,92.69
2016-05-21T00:06:06.683Z,92.3
2016-05-21T00:07:06.716Z,92.16
2016-05-21T00:08:06.720Z,91.78
2016-05-21T00:09:06.738Z,91.93
2016-05-21T00:10:06.741Z,92.26
2016-05-21T00:11:06.821Z,92.02
2016-05-21T00:12:06.836Z,91.83
2016-05-21T00:13:06.855Z,92.36
2016-05-21T00:14:06.873Z,92.69
2016-05-21T00:15:06.766Z,92.74
2016-05-21T00:16:06.941Z,92.55
2016-05-21T00:17:06.968Z,92.64
2016-05-21T00:18:07.007Z,92.64
2016-05-21T00:19:07.016Z,92.83
2016-05-21T00:20:07.040Z,92.69
2016-05-21T00:21:07.079Z,93.02
2016-05-21T00:22:07.101Z,93.6
2016-05-21T00:23:06.950Z,93.5
2016-05-21T00:24:07.126Z,93.21
2016-05-21T00:25:07.148Z,93.41
2016-05-21T00:26:07.167Z,93.02
2016-05-21T00:27:07.187Z,93.21
2016-05-21T00:28:07.207Z,93.12
2016-05-21T00:29:07.241Z,93.12
2016-05-21T00:30:07.260Z,93.98
2016-05-21T00:31:07.278Z,93.6
2016-05-21T00:32:07.298Z,93.7
2016-05-21T00:33:07.316Z,93.7
2016-05-21T00:34:07.334Z,93.88
2016-05-21T00:35:07.337Z,93.41
2016-05-21T00:36:07.199Z,93.7
2016-05-21T00:37:07.373Z,93.79
2016-05-21T00:38:07.392Z,93.79
2016-05-21T00:39:07.426Z,93.88
2016-05-21T00:40:07.303Z,93.79
2016-05-21T00:41:07.837Z,93.6
2016-05-21T00:42:07.512Z,93.6
2016-05-21T00:43:07.499Z,93.88
2016-05-21T00:44:07.533Z,93.88
2016-05-21T00:45:07.535Z,93.98
2016-05-21T00:46:07.555Z,93.88
2016-05-21T00:47:07.573Z,93.41
2016-05-21T00:48:07.591Z,93.31
2016-05-21T00:49:07.453Z,93.6
2016-05-21T00:50:07.643Z,93.12
2016-05-21T00:51:07.646Z,93.02
2016-05-21T00:52:07.664Z,93.84
2016-05-21T00:53:07.682Z,93.17
2016-05-21T00:54:07.701Z,93.36
2016-05-21T00:55:07.734Z,92.6
2016-05-21T00:56:07.737Z,92.69
2016-05-21T00:57:07.755Z,92.5
2016-05-21T00:58:07.789Z,92.5
2016-05-21T00:59:07.792Z,92.6
2016-05-21T01:00:07.810Z,92.21
2016-05-21T01:01:07.845Z,92.41
2016-05-21T01:02:07.848Z,92.41
2016-05-21T01:03:07.912Z,92.79
2016-05-21T01:04:07.759Z,92.69
2016-05-21T01:05:07.746Z,92.6
2016-05-21T01:06:07.936Z,92.31
2016-05-21T01:07:07.954Z,92.6
2016-05-21T01:08:07.801Z,92.6
2016-05-21T01:09:07.991Z,92.69
2016-05-21T01:10:07.837Z,92.41
2016-05-21T01:11:08.152Z,92.41
2016-05-21T01:12:08.030Z,92.31
2016-05-21T01:13:08.048Z,92.6
2016-05-21T01:14:08.066Z,92.5
2016-05-21T01:15:07.929Z,92.02
2016-05-21T01:16:07.947Z,91.93
2016-05-21T01:17:08.122Z,92.41
2016-05-21T01:18:08.141Z,92.69
2016-05-21T01:19:08.174Z,92.79
2016-05-21T01:20:08.192Z,92.69
2016-05-21T01:21:08.211Z,92.41
2016-05-21T01:22:08.229Z,92.69
2016-05-21T01:23:08.263Z,92.69
2016-05-21T01:24:08.282Z,92.41
2016-05-21T01:25:08.112Z,92.31
2016-05-21T01:26:08.271Z,92.31
2016-05-21T01:27:08.304Z,91.93
2016-05-21T01:28:08.323Z,91.93
2016-05-21T01:29:08.357Z,92.02
2016-05-21T01:30:08.360Z,92.21
2016-05-21T01:31:08.410Z,92.12
2016-05-21T01:32:08.412Z,92.21
2016-05-21T01:33:08.415Z,92.02
2016-05-21T01:34:08.434Z,92.31
2016-05-21T01:35:08.451Z,91.93
2016-05-21T01:36:08.314Z,91.93
2016-05-21T01:37:08.488Z,92.02
2016-05-21T01:38:08.506Z,91.64
2016-05-21T01:39:08.368Z,91.45
2016-05-21T01:40:08.559Z,91.36
2016-05-21T01:41:08.577Z,91.45
2016-05-21T01:42:08.580Z,91.36
2016-05-21T01:43:08.458Z,91.36
2016-05-21T01:44:08.476Z,90.88
2016-05-21T01:45:08.651Z,91.07
2016-05-21T01:46:08.669Z,90.59
2016-05-21T01:47:08.672Z,90.11
2016-05-21T01:48:08.689Z,89.73
2016-05-21T01:49:08.724Z,90.11
2016-05-21T01:50:08.727Z,90.78
2016-05-21T01:51:08.744Z,91.26
2016-05-21T01:52:08.778Z,91.16
2016-05-21T01:53:08.780Z,91.26
2016-05-21T01:54:08.815Z,90.88
2016-05-21T01:55:08.818Z,90.69
2016-05-21T01:56:08.899Z,91.07
2016-05-21T01:57:08.855Z,90.69
2016-05-21T01:58:08.888Z,90.97
2016-05-21T01:59:08.891Z,90.78
2016-05-21T02:00:08.910Z,90.97
2016-05-21T02:01:08.927Z,90.69
2016-05-21T02:02:08.946Z,91.36
2016-05-21T02:03:08.964Z,91.07
2016-05-21T02:04:08.998Z,90.59
2016-05-21T02:05:08.845Z,90.59
2016-05-21T02:06:09.034Z,91.16
2016-05-21T02:07:09.068Z,90.97
2016-05-21T02:08:09.071Z,91.26
2016-05-21T02:09:09.089Z,91.26
2016-05-21T02:10:09.108Z,91.26
2016-05-21T02:11:09.439Z,91.26
2016-05-21T02:12:09.129Z,91.55
2016-05-21T02:13:09.148Z,91.26
2016-05-21T02:14:09.166Z,91.31
2016-05-21T02:15:09.184Z,90.97
2016-05-21T02:16:09.047Z,91.36
2016-05-21T02:17:09.220Z,91.12
2016-05-21T02:18:09.239Z,91.31
2016-05-21T02:19:09.272Z,91.02
2016-05-21T02:20:09.275Z,91.31
2016-05-21T02:21:09.310Z,91.41
2016-05-21T02:22:09.313Z,91.6
2016-05-21T02:23:09.330Z,91.98
2016-05-21T02:24:09.349Z,91.78
2016-05-21T02:25:09.367Z,92.17
2016-05-21T02:26:09.386Z,91.78
2016-05-21T02:27:09.404Z,92.26
2016-05-21T02:28:09.421Z,91.78
2016-05-21T02:29:09.441Z,91.78
2016-05-21T02:30:09.459Z,91.78
2016-05-21T02:31:09.493Z,91.78
2016-05-21T02:32:09.340Z,91.69
2016-05-21T02:33:09.529Z,91.69
2016-05-21T02:34:09.532Z,92.17
2016-05-21T02:35:09.550Z,91.6
2016-05-21T02:36:09.569Z,91.98
2016-05-21T02:37:09.586Z,91.78
2016-05-21T02:38:09.606Z,91.78
2016-05-21T02:39:09.624Z,91.69
2016-05-21T02:40:09.642Z,91.6
2016-05-21T02:41:09.676Z,92.17
2016-05-21T02:42:09.662Z,92.07
2016-05-21T02:43:09.697Z,91.78
2016-05-21T02:44:09.715Z,91.98
2016-05-21T02:45:09.733Z,91.88
2016-05-21T02:46:09.752Z,92.65
2016-05-21T02:47:09.754Z,92.55
2016-05-21T02:48:09.788Z,92.55
2016-05-21T02:49:09.650Z,92.55
2016-05-21T02:50:09.825Z,92.6
2016-05-21T02:51:09.719Z,92.65
2016-05-21T02:52:09.877Z,92.46
2016-05-21T02:53:09.864Z,92.65
2016-05-21T02:54:09.899Z,92.26
2016-05-21T02:55:09.932Z,92.65
2016-05-21T02:56:09.935Z,91.6
2016-05-21T02:57:09.953Z,91.98
2016-05-21T02:58:09.971Z,92.6
2016-05-21T02:59:09.990Z,92.36
2016-05-21T03:00:10.008Z,92.41
2016-05-21T03:01:10.027Z,92.22
2016-05-21T03:02:10.029Z,92.22
2016-05-21T03:03:10.062Z,92.41
2016-05-21T03:04:10.066Z,92.41
2016-05-21T03:05:10.084Z,92.32
2016-05-21T03:06:10.102Z,92.69
2016-05-21T03:07:10.120Z,92.5
2016-05-21T03:08:10.154Z,92.6
2016-05-21T03:09:10.001Z,92.69
2016-05-21T03:10:10.176Z,92.6
2016-05-21T03:11:10.162Z,92.5
2016-05-21T03:12:10.212Z,92.88
2016-05-21T03:13:10.246Z,92.69
2016-05-21T03:14:10.264Z,92.5
2016-05-21T03:15:10.283Z,93.27
2016-05-21T03:16:10.301Z,92.88
2016-05-21T03:17:10.303Z,93.08
2016-05-21T03:18:10.322Z,93.17
2016-05-21T03:19:10.184Z,93.36
2016-05-21T03:20:10.358Z,93.08
2016-05-21T03:21:10.362Z,93.17
2016-05-21T03:22:10.395Z,93.27
2016-05-21T03:23:10.430Z,93.08
2016-05-21T03:24:10.433Z,93.08
2016-05-21T03:25:10.450Z,92.88
2016-05-21T03:26:10.453Z,93.08
2016-05-21T03:27:10.487Z,92.88
2016-05-21T03:28:10.350Z,92.98
2016-05-21T03:29:10.524Z,92.98
2016-05-21T03:30:10.541Z,92.98
2016-05-21T03:31:10.560Z,93.17
2016-05-21T03:32:10.563Z,92.88
2016-05-21T03:33:10.596Z,92.88
2016-05-21T03:34:10.599Z,92.88
2016-05-21T03:35:10.618Z,93.17
2016-05-21T03:36:10.637Z,93.08
2016-05-21T03:37:10.670Z,92.88
2016-05-21T03:38:10.688Z,92.88
2016-05-21T03:39:10.707Z,92.41
2016-05-21T03:40:10.709Z,93.27
2016-05-21T03:41:10.743Z,92.98
2016-05-21T03:42:10.746Z,92.69
2016-05-21T03:43:10.764Z,93.36
2016-05-21T03:44:10.783Z,92.88
2016-05-21T03:45:10.817Z,92.88
2016-05-21T03:46:10.819Z,93.08
2016-05-21T03:47:10.837Z,93.08
2016-05-21T03:48:10.872Z,92.6
2016-05-21T03:49:10.859Z,92.5
2016-05-21T03:50:10.892Z,92.41
2016-05-21T03:51:10.911Z,92.41
2016-05-21T03:52:10.930Z,92.55
2016-05-21T03:53:10.791Z,91.98
2016-05-21T03:54:10.966Z,91.83
2016-05-21T03:55:11.000Z,91.78
2016-05-21T03:56:11.471Z,92.26
2016-05-21T03:57:10.864Z,92.07
2016-05-21T03:58:11.024Z,91.78
2016-05-21T03:59:11.042Z,91.78
2016-05-21T04:00:10.904Z,91.6
2016-05-21T04:01:11.094Z,91.69
2016-05-21T04:02:11.112Z,91.5
2016-05-21T04:03:11.130Z,91.21
2016-05-21T04:04:11.149Z,91.5
2016-05-21T04:05:11.183Z,91.12
2016-05-21T04:06:11.185Z,91.12
2016-05-21T04:07:11.204Z,91.02
2016-05-21T04:08:11.207Z,91.12
2016-05-21T04:09:11.225Z,90.93
2016-05-21T04:10:11.243Z,90.64
2016-05-21T04:11:11.277Z,90.73
2016-05-21T04:12:11.279Z,89.78
2016-05-21T04:13:11.314Z,90.36
2016-05-21T04:14:11.317Z,90.07
2016-05-21T04:15:11.335Z,90.21
2016-05-21T04:16:11.354Z,90.02
2016-05-21T04:17:11.372Z,89.92
2016-05-21T04:18:11.406Z,90.21
2016-05-21T04:19:11.252Z,90.02
2016-05-21T04:20:11.426Z,90.02
2016-05-21T04:21:11.445Z,89.92
2016-05-21T04:22:11.464Z,90.02
2016-05-21T04:23:11.481Z,90.02
2016-05-21T04:24:11.500Z,89.54
2016-05-21T04:25:11.502Z,90.02
2016-05-21T04:26:11.834Z,89.54
2016-05-21T04:27:11.569Z,89.25
2016-05-21T04:28:11.572Z,89.45
2016-05-21T04:29:11.607Z,89.73
2016-05-21T04:30:11.625Z,89.64
2016-05-21T04:31:11.628Z,89.73
2016-05-21T04:32:11.646Z,88.87
2016-05-21T04:33:11.665Z,88.78
2016-05-21T04:34:11.682Z,88.78
2016-05-21T04:35:11.560Z,88.87
2016-05-21T04:36:11.719Z,89.06
2016-05-21T04:37:11.737Z,88.87
2016-05-21T04:38:11.757Z,88.68
2016-05-21T04:39:11.774Z,88.82
2016-05-21T04:40:11.793Z,88.15
2016-05-21T04:41:12.312Z,87.87
2016-05-21T04:42:11.845Z,88.15
2016-05-21T04:43:11.692Z,88.25
2016-05-21T04:44:11.881Z,88.06
2016-05-21T04:45:11.900Z,88.15
2016-05-21T04:46:11.903Z,87.68
2016-05-21T04:47:11.921Z,87.48
2016-05-21T04:48:11.939Z,87.2
2016-05-21T04:49:11.801Z,87.29
2016-05-21T04:50:11.976Z,87.1
2016-05-21T04:51:12.010Z,86.91
2016-05-21T04:52:12.028Z,87.01
2016-05-21T04:53:12.047Z,86.1
2016-05-21T04:54:12.049Z,85.81
2016-05-21T04:55:12.083Z,86
2016-05-21T04:56:12.195Z,86.1
2016-05-21T04:57:12.105Z,85.52
2016-05-21T04:58:12.122Z,85.9
2016-05-21T04:59:12.140Z,85.52
2016-05-21T05:00:12.175Z,84.95
2016-05-21T05:01:12.177Z,84.99
2016-05-21T05:02:12.211Z,84.76
2016-05-21T05:03:12.229Z,84.85
2016-05-21T05:04:12.248Z,84.23
2016-05-21T05:05:12.266Z,84.13
2016-05-21T05:06:12.332Z,83.84
2016-05-21T05:07:12.302Z,83.84
2016-05-21T05:08:12.305Z,83.94
2016-05-21T05:09:12.182Z,83.37
2016-05-21T05:10:12.186Z,83.65
2016-05-21T05:11:12.220Z,82.79
2016-05-21T05:12:12.238Z,82.6
2016-05-21T05:13:12.413Z,82.79
2016-05-21T05:14:12.415Z,82.89
2016-05-21T05:15:12.434Z,82.79
2016-05-21T05:16:12.484Z,82.79
2016-05-21T05:17:12.502Z,82.7
2016-05-21T05:18:12.520Z,82.41
2016-05-21T05:19:12.523Z,82.79
2016-05-21T05:20:12.541Z,82.6
2016-05-21T05:21:12.575Z,82.51
2016-05-21T05:22:12.578Z,82.89
2016-05-21T05:23:12.595Z,83.56
2016-05-21T05:24:12.458Z,83.17
2016-05-21T05:25:12.476Z,83.46
2016-05-21T05:26:12.525Z,83.56
2016-05-21T05:27:12.685Z,83.08
2016-05-21T05:28:12.719Z,82.89
2016-05-21T05:29:12.565Z,82.98
2016-05-21T05:30:12.584Z,82.98
2016-05-21T05:31:12.758Z,83.65
2016-05-21T05:32:12.791Z,83.56
2016-05-21T05:33:12.810Z,83.27
2016-05-21T05:34:12.657Z,83.17
2016-05-21T05:35:12.832Z,83.56
2016-05-21T05:36:12.709Z,82.98
2016-05-21T05:37:12.884Z,82.89
2016-05-21T05:38:12.885Z,83.17
2016-05-21T05:39:12.904Z,82.89
2016-05-21T05:40:12.938Z,82.89
2016-05-21T05:41:12.973Z,83.08
2016-05-21T05:42:12.990Z,83.22
2016-05-21T05:43:12.993Z,82.41
2016-05-21T05:44:13.012Z,82.45
2016-05-21T05:45:13.015Z,81.97
2016-05-21T05:46:13.048Z,82.07
2016-05-21T05:47:13.067Z,81.49
2016-05-21T05:48:13.084Z,81.78
2016-05-21T05:49:13.103Z,81.11
2016-05-21T05:50:13.137Z,81.11
2016-05-21T05:51:12.984Z,81.11
2016-05-21T05:52:13.173Z,80.73
2016-05-21T05:53:13.192Z,80.82
2016-05-21T05:54:13.211Z,81.02
2016-05-21T05:55:13.228Z,80.54
2016-05-21T05:56:13.247Z,80.92
2016-05-21T05:57:13.266Z,81.21
2016-05-21T05:58:13.269Z,80.67
2016-05-21T05:59:13.317Z,80.82
2016-05-21T06:00:13.320Z,80.77
2016-05-21T06:01:13.338Z,80.54
2016-05-21T06:02:13.357Z,80.35
2016-05-21T06:03:13.407Z,80.38
2016-05-21T06:04:13.238Z,80.38
2016-05-21T06:05:13.444Z,80.29
2016-05-21T06:06:13.430Z,79.24
2016-05-21T06:07:13.464Z,78.42
2016-05-21T06:08:13.513Z,78.32
2016-05-21T06:09:13.344Z,78.61
2016-05-21T06:10:13.535Z,77.65
2016-05-21T06:11:13.538Z,77.46
2016-05-21T06:12:13.556Z,77.59
2016-05-21T06:13:13.574Z,77.21
2016-05-21T06:14:13.608Z,76.73
2016-05-21T06:15:13.517Z,76.92
2016-05-21T06:16:13.645Z,76.15
2016-05-21T06:17:13.663Z,75.2
2016-05-21T06:18:13.697Z,74.76
2016-05-21T06:19:13.700Z,74.66
2016-05-21T06:20:13.718Z,74.66
2016-05-21T06:21:13.751Z,73.61
2016-05-21T06:22:13.754Z,73.07
2016-05-21T06:23:13.773Z,72.68
2016-05-21T06:24:13.807Z,71.92
2016-05-21T06:25:13.809Z,71.09
2016-05-21T06:26:14.109Z,70.61
2016-05-21T06:27:13.862Z,70.9
2016-05-21T06:28:13.880Z,70.36
2016-05-21T06:29:13.883Z,69.49
2016-05-21T06:30:13.933Z,69.59
2016-05-21T06:31:13.950Z,70.03
2016-05-21T06:32:13.969Z,70.51
2016-05-21T06:33:13.987Z,70.9
2016-05-21T06:34:14.021Z,71.28
2016-05-21T06:35:14.024Z,71.09
2016-05-21T06:36:13.902Z,70.8
2016-05-21T06:37:14.077Z,70.32
2016-05-21T06:38:14.094Z,69.93
2016-05-21T06:39:13.941Z,69.68
2016-05-21T06:40:13.960Z,69.3
2016-05-21T06:41:14.150Z,68.44
2016-05-21T06:42:14.167Z,68.34
2016-05-21T06:43:14.186Z,67.38
2016-05-21T06:44:14.220Z,67.29
2016-05-21T06:45:14.238Z,67.32
2016-05-21T06:46:14.256Z,66.74
2016-05-21T06:47:14.290Z,66.26
2016-05-21T06:48:14.356Z,65.97
2016-05-21T06:49:14.327Z,66.36
2016-05-21T06:50:14.362Z,66.2
2016-05-21T06:51:14.364Z,65.72
2016-05-21T06:52:14.398Z,65.43
2016-05-21T06:53:14.416Z,64.66
2016-05-21T06:54:14.419Z,63.89
2016-05-21T06:55:14.468Z,63.73
2016-05-21T06:56:14.487Z,63.73
2016-05-21T06:57:14.536Z,63.25
2016-05-21T06:58:14.508Z,63.06
2016-05-21T06:59:14.589Z,61.91
2016-05-21T07:00:14.403Z,62.1
2016-05-21T07:01:14.578Z,62.13
2016-05-21T07:02:14.628Z,61.74
2016-05-21T07:03:14.614Z,61.55
2016-05-21T07:04:14.649Z,60.88
2016-05-21T07:05:14.667Z,60.72
2016-05-21T07:06:14.702Z,60.42
2016-05-21T07:07:14.719Z,60.69
2016-05-21T07:08:14.738Z,60.42
2016-05-21T07:09:14.756Z,59.56
2016-05-21T07:10:14.790Z,59.47
2016-05-21T07:11:14.651Z,59.47
2016-05-21T07:12:14.827Z,58.98
2016-05-21T07:13:14.688Z,59.27
2016-05-21T07:14:14.863Z,58.98
2016-05-21T07:15:14.897Z,58.89
2016-05-21T07:16:14.915Z,58.5
2016-05-21T07:17:14.934Z,58.22
2016-05-21T07:18:14.968Z,58.89
2016-05-21T07:19:14.987Z,59.27
2016-05-21T07:20:15.004Z,59.24
2016-05-21T07:21:15.023Z,59.17
2016-05-21T07:22:15.041Z,58.79
2016-05-21T07:23:15.059Z,58.37
2016-05-21T07:24:15.109Z,58.7
2016-05-21T07:25:15.127Z,57.54
2016-05-21T07:26:15.537Z,58.22
2016-05-21T07:27:15.164Z,58.22
2016-05-21T07:28:15.181Z,58.79
2016-05-21T07:29:15.201Z,58.09
2016-05-21T07:30:15.219Z,58.18
2016-05-21T07:31:15.237Z,58.12
2016-05-21T07:32:15.287Z,58.12
2016-05-21T07:33:15.289Z,56.2
2016-05-21T07:34:15.339Z,56.2
2016-05-21T07:35:15.341Z,57.64
2016-05-21T07:36:15.375Z,57.28
2016-05-21T07:37:15.394Z,57.67
2016-05-21T07:38:15.412Z,56.9
2016-05-21T07:39:15.430Z,56.7
2016-05-21T07:40:15.449Z,55.65
2016-05-21T07:41:15.483Z,56.22
2016-05-21T07:42:15.501Z,56.6
2016-05-21T07:43:15.519Z,56.32
2016-05-21T07:44:15.600Z,55.83
2016-05-21T07:45:15.556Z,54.87
2016-05-21T07:46:15.637Z,54.68
2016-05-21T07:47:15.608Z,55.48
2016-05-21T07:48:15.690Z,56.15
2016-05-21T07:49:15.707Z,55.55
2016-05-21T07:50:15.710Z,55.74
2016-05-21T07:51:15.729Z,56.51
2016-05-21T07:52:15.778Z,56.05
2016-05-21T07:53:15.733Z,55.96
2016-05-21T07:54:15.784Z,55.55
2016-05-21T07:55:15.786Z,55.74
2016-05-21T07:56:15.836Z,55.65
2016-05-21T07:57:15.839Z,55.65
2016-05-21T07:58:15.887Z,55.93
2016-05-21T07:59:15.890Z,56.51
2016-05-21T08:00:15.925Z,56.41
2016-05-21T08:01:15.943Z,55.55
2016-05-21T08:02:15.961Z,55.93
2016-05-21T08:03:15.995Z,56.7
2016-05-21T08:04:15.997Z,55.83
2016-05-21T08:05:16.031Z,56.41
2016-05-21T08:06:16.050Z,56.7
2016-05-21T08:07:16.069Z,55.93
2016-05-21T08:08:16.086Z,55.87
2016-05-21T08:09:16.105Z,54.58
2016-05-21T08:10:15.983Z,54.58
2016-05-21T08:11:16.157Z,55.26
2016-05-21T08:12:16.191Z,55.19
2016-05-21T08:13:16.210Z,54.8
2016-05-21T08:14:16.243Z,54.71
2016-05-21T08:15:16.263Z,54.74
2016-05-21T08:16:16.264Z,54.64
2016-05-21T08:17:16.299Z,55.12
2016-05-21T08:18:16.316Z,54.54
2016-05-21T08:19:16.335Z,55.12
2016-05-21T08:20:16.369Z,54.74
2016-05-21T08:21:16.403Z,54.44
2016-05-21T08:22:16.249Z,53.96
2016-05-21T08:23:16.440Z,54.64
2016-05-21T08:24:16.457Z,54.64
2016-05-21T08:25:16.476Z,54.54
2016-05-21T08:26:16.510Z,54.44
2016-05-21T08:27:16.856Z,54.54
2016-05-21T08:28:16.578Z,53.84
2016-05-21T08:29:16.425Z,53.84
2016-05-21T08:30:16.599Z,53.94
2016-05-21T08:31:16.617Z,54.61
2016-05-21T08:32:16.683Z,53.65
2016-05-21T08:33:16.700Z,53.84
2016-05-21T08:34:16.688Z,53.84
2016-05-21T08:35:16.737Z,53.65
2016-05-21T08:36:16.787Z,54.42
2016-05-21T08:37:16.775Z,53.84
2016-05-21T08:38:16.824Z,53.84
2016-05-21T08:39:16.827Z,53.84
2016-05-21T08:40:16.829Z,54.03
2016-05-21T08:41:16.863Z,53.39
2016-05-21T08:42:16.866Z,53.09
2016-05-21T08:43:16.899Z,53
2016-05-21T08:44:16.933Z,52.91
2016-05-21T08:45:16.952Z,51.68
2016-05-21T08:46:16.970Z,51.77
2016-05-21T08:47:17.004Z,51.75
2016-05-21T08:48:17.007Z,51.65
2016-05-21T08:49:17.041Z,51.75
2016-05-21T08:50:17.059Z,51.68
2016-05-21T08:51:17.093Z,51.58
2016-05-21T08:52:17.111Z,51.1
2016-05-21T08:53:16.989Z,50.06
2016-05-21T08:54:17.163Z,50.06
2016-05-21T08:55:17.166Z,50.45
2016-05-21T08:56:17.200Z,49.29
2016-05-21T08:57:17.218Z,49.68
2016-05-21T08:58:17.081Z,49.51
2016-05-21T08:59:17.271Z,49.41
2016-05-21T09:00:17.289Z,49.32
2016-05-21T09:01:17.323Z,49.41
2016-05-21T09:02:17.341Z,49.68
2016-05-21T09:03:17.204Z,49.39
2016-05-21T09:04:17.378Z,50.42
2016-05-21T09:05:17.411Z,50.13
2016-05-21T09:06:17.290Z,49.55
2016-05-21T09:07:17.448Z,50.04
2016-05-21T09:08:17.467Z,49.75
2016-05-21T09:09:17.486Z,49.55
2016-05-21T09:10:17.536Z,49.55
2016-05-21T09:11:17.569Z,49.46
2016-05-21T09:12:17.587Z,49.55
2016-05-21T09:13:17.589Z,49.48
2016-05-21T09:14:17.624Z,48.9
2016-05-21T09:15:17.642Z,49.02
2016-05-21T09:16:17.676Z,48.93
2016-05-21T09:17:17.694Z,49.51
2016-05-21T09:18:17.735Z,49.34
2016-05-21T09:19:17.774Z,48.66
2016-05-21T09:20:17.829Z,48.76
2016-05-21T09:21:17.696Z,48.08
2016-05-21T09:22:17.955Z,47.24
2016-05-21T09:23:17.964Z,47.31
2016-05-21T09:24:18.006Z,47.12
2016-05-21T09:25:18.064Z,47.31
2016-05-21T09:26:18.090Z,46.92
2016-05-21T09:27:18.131Z,46.56
2016-05-21T09:28:18.120Z,46.85
2016-05-21T09:29:18.016Z,46.47
2016-05-21T09:30:18.178Z,46.56
2016-05-21T09:31:18.183Z,46.85
2016-05-21T09:32:18.205Z,46.17
2016-05-21T09:33:18.224Z,46.47
2016-05-21T09:34:18.259Z,47.5
2016-05-21T09:35:18.295Z,47.7
2016-05-21T09:36:18.188Z,48.28
2016-05-21T09:37:18.333Z,48.76
2016-05-21T09:38:18.367Z,49.32
2016-05-21T09:39:18.387Z,49.32
2016-05-21T09:40:18.420Z,49.87
2016-05-21T09:41:18.423Z,49.7
2016-05-21T09:42:18.458Z,49.39
2016-05-21T09:43:18.477Z,49.58
2016-05-21T09:44:18.495Z,50.26
2016-05-21T09:45:18.512Z,49.1
2016-05-21T09:46:18.547Z,49.48
2016-05-21T09:47:18.565Z,48.81
2016-05-21T09:48:18.599Z,48.61
2016-05-21T09:49:18.618Z,48.61
2016-05-21T09:50:18.478Z,49.19
2016-05-21T09:51:18.670Z,48.9
2016-05-21T09:52:18.688Z,49.19
2016-05-21T09:53:18.722Z,49.48
2016-05-21T09:54:18.755Z,48.81
2016-05-21T09:55:18.774Z,48.9
2016-05-21T09:56:18.777Z,48.54
2016-05-21T09:57:18.810Z,48.64
2016-05-21T09:58:18.829Z,47.58
2016-05-21T09:59:18.847Z,47.48
2016-05-21T10:00:18.881Z,47.12
2016-05-21T10:01:18.883Z,46.64
2016-05-21T10:02:18.949Z,45.01
2016-05-21T10:03:18.796Z,45.31
2016-05-21T10:04:18.971Z,44.73
2016-05-21T10:05:18.988Z,44.63
2016-05-21T10:06:19.054Z,44.43
2016-05-21T10:07:19.072Z,43.66
2016-05-21T10:08:19.121Z,43.18
2016-05-21T10:09:19.093Z,42.5
2016-05-21T10:10:19.174Z,42.89
2016-05-21T10:11:19.192Z,43.01
2016-05-21T10:12:19.179Z,43.2
2016-05-21T10:13:19.198Z,43.57
2016-05-21T10:14:19.215Z,43.93
2016-05-21T10:15:19.234Z,44.6
2016-05-21T10:16:19.267Z,44.63
2016-05-21T10:17:19.271Z,43.08
2016-05-21T10:18:19.304Z,43.37
2016-05-21T10:19:19.322Z,43.47
2016-05-21T10:20:19.356Z,43.4
2016-05-21T10:21:19.392Z,43.59
2016-05-21T10:22:19.409Z,42.82
2016-05-21T10:23:19.428Z,42.04
2016-05-21T10:24:19.462Z,42.62
2016-05-21T10:25:19.323Z,43.68
2016-05-21T10:26:19.872Z,43.1
2016-05-21T10:27:19.516Z,41.75
2016-05-21T10:28:19.550Z,42.24
2016-05-21T10:29:19.569Z,42.24
2016-05-21T10:30:19.602Z,42.14
2016-05-21T10:31:19.621Z,41.85
2016-05-21T10:32:19.655Z,42.33
2016-05-21T10:33:19.689Z,42.24
2016-05-21T10:34:19.707Z,42.14
2016-05-21T10:35:19.725Z,42.14
2016-05-21T10:36:19.744Z,42.04
2016-05-21T10:37:19.778Z,42.04
2016-05-21T10:38:19.780Z,42.24
2016-05-21T10:39:19.799Z,42.7
2016-05-21T10:40:19.833Z,42.7
2016-05-21T10:41:19.866Z,43.01
2016-05-21T10:42:19.884Z,42.14
2016-05-21T10:43:19.903Z,41.66
2016-05-21T10:44:19.937Z,42.24
2016-05-21T10:45:19.956Z,42.33
2016-05-21T10:46:19.989Z,42.14
2016-05-21T10:47:20.007Z,41.97
2016-05-21T10:48:20.042Z,41.58
2016-05-21T10:49:20.076Z,41
2016-05-21T10:50:20.078Z,41.09
2016-05-21T10:51:20.097Z,41.7
2016-05-21T10:52:20.131Z,42.28
2016-05-21T10:53:20.149Z,42.08
2016-05-21T10:54:20.230Z,42.18
2016-05-21T10:55:20.045Z,42.37
2016-05-21T10:56:20.345Z,43.63
2016-05-21T10:57:20.114Z,42.55
2016-05-21T10:58:20.333Z,43.03
2016-05-21T10:59:20.337Z,42.16
2016-05-21T11:00:20.355Z,43.51
2016-05-21T11:01:20.405Z,43.49
2016-05-21T11:02:20.376Z,42.82
2016-05-21T11:03:20.411Z,42.82
2016-05-21T11:04:20.335Z,43.3
2016-05-21T11:05:20.446Z,42.82
2016-05-21T11:06:20.465Z,43.1
2016-05-21T11:07:20.483Z,42.82
2016-05-21T11:08:20.518Z,42.91
2016-05-21T11:09:20.551Z,42.91
2016-05-21T11:10:20.569Z,43.59
2016-05-21T11:11:20.604Z,43.68
2016-05-21T11:12:20.622Z,43.68
2016-05-21T11:13:20.640Z,44.07
2016-05-21T11:14:20.518Z,43.4
2016-05-21T11:15:20.693Z,42.82
2016-05-21T11:16:20.726Z,43.59
2016-05-21T11:17:20.729Z,43.68
2016-05-21T11:18:20.779Z,43.59
2016-05-21T11:19:20.812Z,43.59
2016-05-21T11:20:20.815Z,43.78
2016-05-21T11:21:20.834Z,43.68
2016-05-21T11:22:20.867Z,43.49
2016-05-21T11:23:20.886Z,43.3
2016-05-21T11:24:20.904Z,43.68
2016-05-21T11:25:20.938Z,43.88
2016-05-21T11:26:20.956Z,44.07
2016-05-21T11:27:20.974Z,43.88
2016-05-21T11:28:21.009Z,43.68
2016-05-21T11:29:20.870Z,43.59
2016-05-21T11:30:21.061Z,43.3
2016-05-21T11:31:21.079Z,43.78
2016-05-21T11:32:21.097Z,43.98
2016-05-21T11:33:21.116Z,44.65
2016-05-21T11:34:21.181Z,44.84
2016-05-21T11:35:21.183Z,44.84
2016-05-21T11:36:21.202Z,45.42
2016-05-21T11:37:21.252Z,45.42
2016-05-21T11:38:21.145Z,45.4
2016-05-21T11:39:21.304Z,45.5
2016-05-21T11:40:21.197Z,45.4
2016-05-21T11:41:21.387Z,46.08
2016-05-21T11:42:22.296Z,46.08
2016-05-21T11:43:21.407Z,46.66
2016-05-21T11:44:21.411Z,46.95
2016-05-21T11:45:21.413Z,46.73
2016-05-21T11:46:21.448Z,46.73
2016-05-21T11:47:21.482Z,46.44
2016-05-21T11:48:21.501Z,46.17
2016-05-21T11:49:21.362Z,46.06
2016-05-21T11:50:21.381Z,45.57
2016-05-21T11:51:21.570Z,45.48
2016-05-21T11:52:21.589Z,45.86
2016-05-21T11:53:21.592Z,46.15
2016-05-21T11:54:21.625Z,46.44
2016-05-21T11:55:21.644Z,47.02
2016-05-21T11:56:21.678Z,47.5
2016-05-21T11:57:21.728Z,47.5
2016-05-21T11:58:21.730Z,47.5
2016-05-21T11:59:21.592Z,47.6
2016-05-21T12:00:21.766Z,47.22
2016-05-21T12:01:21.800Z,47.6
2016-05-21T12:02:21.833Z,47.7
2016-05-21T12:03:21.853Z,47.67
2016-05-21T12:04:21.856Z,47.31
2016-05-21T12:05:21.889Z,47.67
2016-05-21T12:06:21.923Z,48.44
2016-05-21T12:07:21.941Z,47.87
2016-05-21T12:08:21.960Z,47.38
2016-05-21T12:09:21.994Z,47.22
2016-05-21T12:10:22.028Z,46.73
2016-05-21T12:11:22.046Z,45.96
2016-05-21T12:12:21.908Z,45.76
2016-05-21T12:13:22.098Z,45.59
2016-05-21T12:14:22.116Z,45.79
2016-05-21T12:15:22.135Z,45.01
2016-05-21T12:16:22.154Z,44.75
2016-05-21T12:17:22.187Z,43.1
2016-05-21T12:18:22.190Z,42.35
2016-05-21T12:19:22.224Z,42.35
2016-05-21T12:20:22.273Z,42.3
2016-05-21T12:21:22.276Z,42.3
2016-05-21T12:22:22.310Z,42.3
2016-05-21T12:23:22.328Z,41.24
2016-05-21T12:24:22.378Z,41.52
2016-05-21T12:25:22.428Z,41.55
2016-05-21T12:26:22.242Z,41.74
2016-05-21T12:27:22.589Z,41.35
2016-05-21T12:28:22.279Z,40.38
2016-05-21T12:29:22.516Z,41.24
2016-05-21T12:30:22.331Z,41.04
2016-05-21T12:31:22.553Z,41.11
2016-05-21T12:32:22.587Z,41.31
2016-05-21T12:33:22.606Z,41.79
2016-05-21T12:34:22.608Z,41.77
2016-05-21T12:35:22.658Z,41.79
2016-05-21T12:36:22.644Z,41.67
2016-05-21T12:37:22.663Z,41.02
2016-05-21T12:38:22.696Z,41.19
2016-05-21T12:39:22.731Z,40.9
2016-05-21T12:40:22.733Z,41.29
2016-05-21T12:41:22.767Z,41.29
2016-05-21T12:42:22.802Z,41.6
2016-05-21T12:43:22.804Z,41.11
2016-05-21T12:44:22.838Z,40.83
2016-05-21T12:45:22.872Z,39.76
2016-05-21T12:46:22.890Z,39.88
2016-05-21T12:47:22.924Z,39.2
2016-05-21T12:48:22.926Z,39.01
2016-05-21T12:49:22.976Z,37.94
2016-05-21T12:50:22.995Z,38.35
2016-05-21T12:51:22.857Z,38.54
2016-05-21T12:52:23.032Z,37.87
2016-05-21T12:53:23.065Z,37.87
2016-05-21T12:54:23.099Z,38.15
2016-05-21T12:55:23.101Z,37.57
2016-05-21T12:56:23.136Z,37.67